Howenstein, Ohio
Current Conditions -  °F | °C
As of 6:53 PM on Friday 28 Nov 2014 (Local Time) from KPHD Reporting Station
Few Clouds Few Clouds  
Wind Chill: 22°   Ceiling: Unl
Heat Index: 29°   Visibility: 10mi
Dew Point: 18°   Wind: 7mph
Humidity: 64%   Direction: 210°SSW
Pressure: 30.23"   Gusts: NA
Location:  40.6874°N, 81.3851°W
Report Text: KPHD 282353Z AUTO 21006KT 10SM FEW110 M02/M08 A3023 RMK AO2 SNB2255E14 SLP248 P0000 60000 T10171078 11011 21022 58008
Loading
Personal Weather Stations






























Interactive Weather Map New forecast layout! Learn more

10-Day Weather Forecast

Advertisements
Track Severe Weather on mobile